createdAt,value
2016-05-06T00:00:09.804Z,1012.87
2016-05-06T00:01:09.853Z,1012.83
2016-05-06T00:02:09.886Z,1012.84
2016-05-06T00:03:09.922Z,1012.83
2016-05-06T00:04:09.956Z,1012.79
2016-05-06T00:05:09.989Z,1012.78
2016-05-06T00:06:10.022Z,1012.82
2016-05-06T00:07:10.057Z,1012.78
2016-05-06T00:08:10.090Z,1012.79
2016-05-06T00:09:10.125Z,1012.77
2016-05-06T00:10:10.158Z,1012.75
2016-05-06T00:11:10.193Z,1012.81
2016-05-06T00:12:10.226Z,1012.75
2016-05-06T00:13:10.277Z,1012.81
2016-05-06T00:14:10.294Z,1012.82
2016-05-06T00:15:10.329Z,1012.77
2016-05-06T00:16:10.377Z,1012.85
2016-05-06T00:17:10.412Z,1012.86
2016-05-06T00:18:10.445Z,1012.84
2016-05-06T00:19:10.480Z,1012.84
2016-05-06T00:20:10.513Z,1012.84
2016-05-06T00:21:10.540Z,1012.84
2016-05-06T00:22:10.575Z,1012.75
2016-05-06T00:23:10.608Z,1012.77
2016-05-06T00:24:10.658Z,1012.8
2016-05-06T00:25:10.692Z,1012.75
2016-05-06T00:26:10.726Z,1012.73
2016-05-06T00:27:10.760Z,1012.75
2016-05-06T00:28:10.794Z,1012.76
2016-05-06T00:29:10.828Z,1012.72
2016-05-06T00:30:10.862Z,1012.75
2016-05-06T00:31:10.896Z,1012.74
2016-05-06T00:32:10.929Z,1012.73
2016-05-06T00:33:10.964Z,1012.71
2016-05-06T00:34:10.998Z,1012.71
2016-05-06T00:35:11.031Z,1012.7
2016-05-06T00:36:11.066Z,1012.72
2016-05-06T00:37:11.115Z,1012.71
2016-05-06T00:38:11.133Z,1012.7
2016-05-06T00:39:11.167Z,1012.71
2016-05-06T00:40:11.217Z,1012.71
2016-05-06T00:41:11.235Z,1012.69
2016-05-06T00:42:11.284Z,1012.67
2016-05-06T00:43:11.319Z,1012.68
2016-05-06T00:44:11.353Z,1012.67
2016-05-06T00:45:11.386Z,1012.69
2016-05-06T00:46:11.420Z,1012.65
2016-05-06T00:47:11.454Z,1012.68
2016-05-06T00:48:11.488Z,1012.67
2016-05-06T00:49:11.522Z,1012.64
2016-05-06T00:50:11.556Z,1012.62
2016-05-06T00:51:11.590Z,1012.62
2016-05-06T00:52:11.624Z,1012.63
2016-05-06T00:53:11.658Z,1012.63
2016-05-06T00:54:11.692Z,1012.63
2016-05-06T00:55:11.726Z,1012.62
2016-05-06T00:56:11.760Z,1012.6
2016-05-06T00:57:11.794Z,1012.59
2016-05-06T00:58:11.827Z,1012.58
2016-05-06T00:59:11.862Z,1012.56
2016-05-06T01:00:11.911Z,1012.58
2016-05-06T01:01:11.930Z,1012.55
2016-05-06T01:02:11.979Z,1012.55
2016-05-06T01:03:12.013Z,1012.53
2016-05-06T01:04:12.047Z,1012.53
2016-05-06T01:05:12.081Z,1012.51
2016-05-06T01:06:12.115Z,1012.53
2016-05-06T01:07:12.149Z,1012.5
2016-05-06T01:08:12.183Z,1012.49
2016-05-06T01:09:12.217Z,1012.47
2016-05-06T01:10:12.251Z,1012.45
2016-05-06T01:11:12.284Z,1012.46
2016-05-06T01:12:12.319Z,1012.47
2016-05-06T01:13:12.352Z,1012.49
2016-05-06T01:14:12.387Z,1012.44
2016-05-06T01:15:12.420Z,1012.47
2016-05-06T01:16:12.455Z,1012.45
2016-05-06T01:17:12.488Z,1012.47
2016-05-06T01:18:12.522Z,1012.44
2016-05-06T01:19:12.572Z,1012.41
2016-05-06T01:20:12.591Z,1012.44
2016-05-06T01:21:12.624Z,1012.45
2016-05-06T01:22:12.657Z,1012.44
2016-05-06T01:23:12.708Z,1012.43
2016-05-06T01:24:12.741Z,1012.45
2016-05-06T01:25:12.775Z,1012.45
2016-05-06T01:26:12.809Z,1012.46
2016-05-06T01:27:12.844Z,1012.46
2016-05-06T01:28:12.877Z,1012.5
2016-05-06T01:29:12.911Z,1012.48
2016-05-06T01:30:12.945Z,1012.48
2016-05-06T01:31:12.979Z,1012.51
2016-05-06T01:32:13.013Z,1012.46
2016-05-06T01:33:13.046Z,1012.45
2016-05-06T01:34:13.081Z,1012.45
2016-05-06T01:35:13.114Z,1012.48
2016-05-06T01:36:13.149Z,1012.47
2016-05-06T01:37:13.182Z,1012.42
2016-05-06T01:38:13.216Z,1012.44
2016-05-06T01:39:13.250Z,1012.42
2016-05-06T01:40:13.285Z,1012.44
2016-05-06T01:41:13.318Z,1012.44
2016-05-06T01:42:13.352Z,1012.41
2016-05-06T01:43:13.387Z,1012.4
2016-05-06T01:44:13.420Z,1012.41
2016-05-06T01:45:13.454Z,1012.41
2016-05-06T01:46:13.503Z,1012.42
2016-05-06T01:47:13.522Z,1012.39
2016-05-06T01:48:13.572Z,1012.36
2016-05-06T01:49:13.606Z,1012.35
2016-05-06T01:50:13.624Z,1012.35
2016-05-06T01:51:13.657Z,1012.33
2016-05-06T01:52:13.708Z,1012.31
2016-05-06T01:53:13.742Z,1012.32
2016-05-06T01:54:13.775Z,1012.28
2016-05-06T01:55:13.809Z,1012.27
2016-05-06T01:56:13.844Z,1012.27
2016-05-06T01:57:13.861Z,1012.22
2016-05-06T01:58:13.911Z,1012.23
2016-05-06T01:59:13.945Z,1012.22
2016-05-06T02:00:13.979Z,1012.24
2016-05-06T02:01:14.013Z,1012.23
2016-05-06T02:02:14.046Z,1012.22
2016-05-06T02:03:14.081Z,1012.23
2016-05-06T02:04:14.114Z,1012.21
2016-05-06T02:05:14.149Z,1012.18
2016-05-06T02:06:14.182Z,1012.15
2016-05-06T02:07:14.217Z,1012.19
2016-05-06T02:08:14.250Z,1012.21
2016-05-06T02:09:14.284Z,1012.14
2016-05-06T02:10:14.318Z,1012.11
2016-05-06T02:11:14.352Z,1012.15
2016-05-06T02:12:14.386Z,1012.17
2016-05-06T02:13:14.420Z,1012.17
2016-05-06T02:14:14.454Z,1012.17
2016-05-06T02:15:14.488Z,1012.12
2016-05-06T02:16:14.522Z,1012.18
2016-05-06T02:17:14.556Z,1012.12
2016-05-06T02:18:14.590Z,1012.15
2016-05-06T02:19:14.624Z,1012.16
2016-05-06T02:20:14.658Z,1012.13
2016-05-06T02:21:14.692Z,1012.11
2016-05-06T02:22:14.725Z,1012.14
2016-05-06T02:23:14.760Z,1012.1
2016-05-06T02:24:14.797Z,1012.09
2016-05-06T02:25:14.831Z,1012.08
2016-05-06T02:26:14.865Z,1012.08
2016-05-06T02:27:14.899Z,1012.04
2016-05-06T02:28:14.933Z,1012.06
2016-05-06T02:29:14.967Z,1012.07
2016-05-06T02:30:15.000Z,1012.03
2016-05-06T02:31:15.035Z,1012.03
2016-05-06T02:32:15.069Z,1011.99
2016-05-06T02:33:15.102Z,1011.98
2016-05-06T02:34:15.136Z,1011.99
2016-05-06T02:35:15.170Z,1011.98
2016-05-06T02:36:15.236Z,1011.92
2016-05-06T02:37:15.238Z,1011.93
2016-05-06T02:38:15.273Z,1011.92
2016-05-06T02:39:15.306Z,1011.93
2016-05-06T02:40:15.341Z,1011.91
2016-05-06T02:41:15.436Z,1011.87
2016-05-06T02:42:15.407Z,1011.87
2016-05-06T02:43:15.441Z,1011.88
2016-05-06T02:44:15.477Z,1011.85
2016-05-06T02:45:15.510Z,1011.83
2016-05-06T02:46:15.543Z,1011.8
2016-05-06T02:47:15.578Z,1011.79
2016-05-06T02:48:15.612Z,1011.81
2016-05-06T02:49:15.645Z,1011.78
2016-05-06T02:50:15.679Z,1011.78
2016-05-06T02:51:15.714Z,1011.79
2016-05-06T02:52:15.748Z,1011.75
2016-05-06T02:53:15.781Z,1011.77
2016-05-06T02:54:15.816Z,1011.75
2016-05-06T02:55:15.848Z,1011.73
2016-05-06T02:56:15.884Z,1011.75
2016-05-06T02:57:15.917Z,1011.74
2016-05-06T02:58:15.951Z,1011.76
2016-05-06T02:59:15.985Z,1011.72
2016-05-06T03:00:16.020Z,1011.76
2016-05-06T03:01:16.053Z,1011.8
2016-05-06T03:02:16.086Z,1011.77
2016-05-06T03:03:16.137Z,1011.81
2016-05-06T03:04:16.155Z,1011.82
2016-05-06T03:05:16.189Z,1011.79
2016-05-06T03:06:16.222Z,1011.83
2016-05-06T03:07:16.256Z,1011.85
2016-05-06T03:08:16.291Z,1011.8
2016-05-06T03:09:16.324Z,1011.83
2016-05-06T03:10:16.358Z,1011.79
2016-05-06T03:11:16.408Z,1011.79
2016-05-06T03:12:16.427Z,1011.78
2016-05-06T03:13:16.460Z,1011.76
2016-05-06T03:14:16.494Z,1011.78
2016-05-06T03:15:16.527Z,1011.77
2016-05-06T03:16:16.563Z,1011.78
2016-05-06T03:17:16.596Z,1011.77
2016-05-06T03:18:16.646Z,1011.76
2016-05-06T03:19:16.663Z,1011.75
2016-05-06T03:20:16.698Z,1011.77
2016-05-06T03:21:16.732Z,1011.76
2016-05-06T03:22:16.765Z,1011.72
2016-05-06T03:23:16.799Z,1011.7
2016-05-06T03:24:16.849Z,1011.66
2016-05-06T03:25:16.868Z,1011.65
2016-05-06T03:26:16.901Z,1011.66
2016-05-06T03:27:16.935Z,1011.65
2016-05-06T03:28:16.970Z,1011.64
2016-05-06T03:29:17.003Z,1011.62
2016-05-06T03:30:17.037Z,1011.61
2016-05-06T03:31:17.071Z,1011.63
2016-05-06T03:32:17.105Z,1011.63
2016-05-06T03:33:17.139Z,1011.66
2016-05-06T03:34:17.173Z,1011.66
2016-05-06T03:35:17.206Z,1011.65
2016-05-06T03:36:17.241Z,1011.66
2016-05-06T03:37:17.275Z,1011.66
2016-05-06T03:38:17.309Z,1011.67
2016-05-06T03:39:17.342Z,1011.65
2016-05-06T03:40:17.377Z,1011.62
2016-05-06T03:41:17.921Z,1011.65
2016-05-06T03:42:17.453Z,1011.64
2016-05-06T03:43:17.506Z,1011.61
2016-05-06T03:44:17.648Z,1011.61
2016-05-06T03:45:17.525Z,1011.59
2016-05-06T03:46:17.575Z,1011.55
2016-05-06T03:47:17.594Z,1011.52
2016-05-06T03:48:17.628Z,1011.47
2016-05-06T03:49:17.661Z,1011.5
2016-05-06T03:50:17.696Z,1011.48
2016-05-06T03:51:17.745Z,1011.42
2016-05-06T03:52:17.763Z,1011.45
2016-05-06T03:53:17.813Z,1011.43
2016-05-06T03:54:17.831Z,1011.43
2016-05-06T03:55:17.866Z,1011.44
2016-05-06T03:56:17.899Z,1011.44
2016-05-06T03:57:17.933Z,1011.45
2016-05-06T03:58:17.967Z,1011.47
2016-05-06T03:59:18.001Z,1011.45
2016-05-06T04:00:18.035Z,1011.46
2016-05-06T04:01:18.085Z,1011.47
2016-05-06T04:02:18.103Z,1011.43
2016-05-06T04:03:18.136Z,1011.43
2016-05-06T04:04:18.171Z,1011.42
2016-05-06T04:05:18.204Z,1011.37
2016-05-06T04:06:18.253Z,1011.36
2016-05-06T04:07:18.273Z,1011.33
2016-05-06T04:08:18.307Z,1011.3
2016-05-06T04:09:18.340Z,1011.3
2016-05-06T04:10:18.374Z,1011.28
2016-05-06T04:11:18.409Z,1011.3
2016-05-06T04:12:18.441Z,1011.3
2016-05-06T04:13:18.476Z,1011.31
2016-05-06T04:14:18.510Z,1011.32
2016-05-06T04:15:18.544Z,1011.33
2016-05-06T04:16:18.578Z,1011.28
2016-05-06T04:17:18.611Z,1011.3
2016-05-06T04:18:18.646Z,1011.29
2016-05-06T04:19:18.679Z,1011.29
2016-05-06T04:20:18.714Z,1011.26
2016-05-06T04:21:18.747Z,1011.25
2016-05-06T04:22:18.782Z,1011.21
2016-05-06T04:23:18.815Z,1011.22
2016-05-06T04:24:18.849Z,1011.21
2016-05-06T04:25:18.883Z,1011.19
2016-05-06T04:26:18.917Z,1011.17
2016-05-06T04:27:18.951Z,1011.18
2016-05-06T04:28:18.985Z,1011.13
2016-05-06T04:29:19.019Z,1011.12
2016-05-06T04:30:19.037Z,1011.12
2016-05-06T04:31:19.087Z,1011.12
2016-05-06T04:32:19.121Z,1011.09
2016-05-06T04:33:19.140Z,1011.11
2016-05-06T04:34:19.173Z,1011.11
2016-05-06T04:35:19.207Z,1011.15
2016-05-06T04:36:19.242Z,1011.12
2016-05-06T04:37:19.275Z,1011.14
2016-05-06T04:38:19.309Z,1011.1
2016-05-06T04:39:19.358Z,1011.12
2016-05-06T04:40:19.392Z,1011.1
2016-05-06T04:41:19.411Z,1011.07
2016-05-06T04:42:19.445Z,1011.09
2016-05-06T04:43:19.478Z,1011.05
2016-05-06T04:44:19.513Z,1011.09
2016-05-06T04:45:19.547Z,1011.06
2016-05-06T04:46:19.580Z,1011.03
2016-05-06T04:47:19.630Z,1011.07
2016-05-06T04:48:19.649Z,1011.06
2016-05-06T04:49:19.683Z,1011.07
2016-05-06T04:50:19.716Z,1011.08
2016-05-06T04:51:19.750Z,1011.06
2016-05-06T04:52:19.799Z,1011.02
2016-05-06T04:53:19.833Z,1011.05
2016-05-06T04:54:19.852Z,1011.08
2016-05-06T04:55:19.902Z,1011.06
2016-05-06T04:56:19.935Z,1011.08
2016-05-06T04:57:19.969Z,1011.08
2016-05-06T04:58:20.004Z,1011.09
2016-05-06T04:59:20.037Z,1011.08
2016-05-06T05:00:20.071Z,1011.07
2016-05-06T05:01:20.104Z,1011.03
2016-05-06T05:02:20.140Z,1011.04
2016-05-06T05:03:20.173Z,1011.02
2016-05-06T05:04:20.206Z,1011.01
2016-05-06T05:05:20.241Z,1011.04
2016-05-06T05:06:20.275Z,1010.99
2016-05-06T05:07:20.309Z,1011
2016-05-06T05:08:20.342Z,1011.02
2016-05-06T05:09:20.377Z,1011.04
2016-05-06T05:10:20.411Z,1010.99
2016-05-06T05:11:20.468Z,1011.03
2016-05-06T05:12:20.548Z,1011.05
2016-05-06T05:13:20.629Z,1011
2016-05-06T05:14:20.711Z,1011.03
2016-05-06T05:15:20.792Z,1010.99
2016-05-06T05:16:20.858Z,1011
2016-05-06T05:17:20.909Z,1011
2016-05-06T05:18:20.961Z,1010.98
2016-05-06T05:19:21.011Z,1010.97
2016-05-06T05:20:21.077Z,1010.97
2016-05-06T05:21:21.123Z,1010.99
2016-05-06T05:22:21.163Z,1010.98
2016-05-06T05:23:21.204Z,1010.98
2016-05-06T05:24:21.243Z,1010.97
2016-05-06T05:25:21.284Z,1011.02
2016-05-06T05:26:21.446Z,1011
2016-05-06T05:27:21.359Z,1011.04
2016-05-06T05:28:21.394Z,1011.01
2016-05-06T05:29:21.431Z,1011.06
2016-05-06T05:30:21.466Z,1011.03
2016-05-06T05:31:21.502Z,1011.03
2016-05-06T05:32:21.537Z,1011.05
2016-05-06T05:33:21.571Z,1011.05
2016-05-06T05:34:21.606Z,1011.02
2016-05-06T05:35:21.641Z,1011.01
2016-05-06T05:36:21.676Z,1011.02
2016-05-06T05:37:21.709Z,1011.02
2016-05-06T05:38:21.744Z,1011.02
2016-05-06T05:39:21.794Z,1011.02
2016-05-06T05:40:21.828Z,1011.04
2016-05-06T05:41:21.847Z,1011
2016-05-06T05:42:21.897Z,1011.02
2016-05-06T05:43:21.930Z,1011.01
2016-05-06T05:44:21.964Z,1010.95
2016-05-06T05:45:21.999Z,1011
2016-05-06T05:46:22.032Z,1010.97
2016-05-06T05:47:22.066Z,1010.94
2016-05-06T05:48:22.100Z,1010.91
2016-05-06T05:49:22.135Z,1010.92
2016-05-06T05:50:22.168Z,1010.9
2016-05-06T05:51:22.202Z,1010.9
2016-05-06T05:52:22.235Z,1010.93
2016-05-06T05:53:22.270Z,1010.88
2016-05-06T05:54:22.304Z,1010.91
2016-05-06T05:55:22.338Z,1010.88
2016-05-06T05:56:22.387Z,1010.9
2016-05-06T05:57:22.406Z,1010.87
2016-05-06T05:58:22.456Z,1010.88
2016-05-06T05:59:22.504Z,1010.87
2016-05-06T06:00:22.523Z,1010.88
2016-05-06T06:01:22.557Z,1010.87
2016-05-06T06:02:22.591Z,1010.88
2016-05-06T06:03:22.625Z,1010.91
2016-05-06T06:04:22.659Z,1010.88
2016-05-06T06:05:22.692Z,1010.87
2016-05-06T06:06:22.727Z,1010.87
2016-05-06T06:07:22.761Z,1010.83
2016-05-06T06:08:22.795Z,1010.87
2016-05-06T06:09:22.828Z,1010.83
2016-05-06T06:10:22.863Z,1010.83
2016-05-06T06:11:22.911Z,1010.83
2016-05-06T06:12:22.930Z,1010.83
2016-05-06T06:13:22.980Z,1010.81
2016-05-06T06:14:23.014Z,1010.79
2016-05-06T06:15:23.048Z,1010.8
2016-05-06T06:16:23.082Z,1010.79
2016-05-06T06:17:23.115Z,1010.78
2016-05-06T06:18:23.150Z,1010.85
2016-05-06T06:19:23.183Z,1010.81
2016-05-06T06:20:23.233Z,1010.82
2016-05-06T06:21:23.252Z,1010.82
2016-05-06T06:22:23.301Z,1010.78
2016-05-06T06:23:23.335Z,1010.76
2016-05-06T06:24:23.368Z,1010.77
2016-05-06T06:25:23.404Z,1010.81
2016-05-06T06:26:23.437Z,1010.78
2016-05-06T06:27:23.471Z,1010.74
2016-05-06T06:28:23.504Z,1010.78
2016-05-06T06:29:23.539Z,1010.7
2016-05-06T06:30:23.587Z,1010.71
2016-05-06T06:31:23.623Z,1010.64
2016-05-06T06:32:23.656Z,1010.69
2016-05-06T06:33:23.689Z,1010.65
2016-05-06T06:34:23.724Z,1010.62
2016-05-06T06:35:23.758Z,1010.65
2016-05-06T06:36:23.807Z,1010.58
2016-05-06T06:37:23.826Z,1010.58
2016-05-06T06:38:23.859Z,1010.6
2016-05-06T06:39:23.894Z,1010.53
2016-05-06T06:40:23.944Z,1010.58
2016-05-06T06:41:23.961Z,1010.56
2016-05-06T06:42:24.011Z,1010.55
2016-05-06T06:43:24.044Z,1010.63
2016-05-06T06:44:24.079Z,1010.56
2016-05-06T06:45:24.113Z,1010.49
2016-05-06T06:46:24.147Z,1010.45
2016-05-06T06:47:24.181Z,1010.4
2016-05-06T06:48:24.215Z,1010.39
2016-05-06T06:49:24.249Z,1010.38
2016-05-06T06:50:24.282Z,1010.42
2016-05-06T06:51:24.316Z,1010.38
2016-05-06T06:52:24.366Z,1010.39
2016-05-06T06:53:24.400Z,1010.41
2016-05-06T06:55:24.968Z,1010.38
2016-05-06T06:56:24.892Z,1010.39
2016-05-06T06:58:24.570Z,1010.3
2016-05-06T06:59:24.603Z,1010.32
2016-05-06T07:00:24.638Z,1010.31
2016-05-06T07:01:24.687Z,1010.28
2016-05-06T07:02:24.721Z,1010.27
2016-05-06T07:03:24.756Z,1010.29
2016-05-06T07:04:24.789Z,1010.26
2016-05-06T07:05:24.822Z,1010.23
2016-05-06T07:06:24.872Z,1010.18
2016-05-06T07:07:24.891Z,1010.19
2016-05-06T07:08:24.925Z,1010.19
2016-05-06T07:09:24.958Z,1010.19
2016-05-06T07:10:25.009Z,1010.12
2016-05-06T07:11:25.292Z,1010.14
2016-05-06T07:12:25.075Z,1010.11
2016-05-06T07:13:25.110Z,1010.11
2016-05-06T07:14:25.144Z,1010.11
2016-05-06T07:15:25.177Z,1010.11
2016-05-06T07:16:25.211Z,1010.09
2016-05-06T07:17:25.261Z,1010.07
2016-05-06T07:18:25.296Z,1010.05
2016-05-06T07:19:25.330Z,1010.1
2016-05-06T07:20:25.363Z,1010.07
2016-05-06T07:21:25.397Z,1010.1
2016-05-06T07:22:25.431Z,1010.04
2016-05-06T07:23:25.470Z,1010.04
2016-05-06T07:24:25.504Z,1010.01
2016-05-06T07:25:25.537Z,1010.06
2016-05-06T07:26:25.587Z,1010.03
2016-05-06T07:27:25.621Z,1010.04
2016-05-06T07:28:25.656Z,1010.02
2016-05-06T07:29:25.689Z,1009.96
2016-05-06T07:30:25.723Z,1010
2016-05-06T07:31:25.757Z,1009.97
2016-05-06T07:32:25.792Z,1009.99
2016-05-06T07:33:25.826Z,1009.99
2016-05-06T07:34:25.875Z,1009.94
2016-05-06T07:35:25.908Z,1009.96
2016-05-06T07:36:25.942Z,1009.94
2016-05-06T07:37:25.976Z,1009.95
2016-05-06T07:38:26.010Z,1009.9
2016-05-06T07:39:26.044Z,1009.94
2016-05-06T07:40:26.094Z,1009.9
2016-05-06T07:41:26.128Z,1009.89
2016-05-06T07:42:26.161Z,1009.9
2016-05-06T07:43:26.196Z,1009.88
2016-05-06T07:44:26.245Z,1009.85
2016-05-06T07:45:26.279Z,1009.81
2016-05-06T07:46:26.313Z,1009.82
2016-05-06T07:47:26.363Z,1009.8
2016-05-06T07:48:26.380Z,1009.83
2016-05-06T07:49:26.431Z,1009.86
2016-05-06T07:50:26.465Z,1009.89
2016-05-06T07:51:26.498Z,1009.83
2016-05-06T07:52:26.532Z,1009.85
2016-05-06T07:53:26.598Z,1009.82
2016-05-06T07:54:26.615Z,1009.83
2016-05-06T07:55:26.649Z,1009.77
2016-05-06T07:56:26.684Z,1009.79
2016-05-06T07:57:26.734Z,1009.75
2016-05-06T07:58:26.782Z,1009.73
2016-05-06T07:59:26.818Z,1009.73
2016-05-06T08:00:26.851Z,1009.74
2016-05-06T08:01:26.900Z,1009.73
2016-05-06T08:02:26.934Z,1009.72
2016-05-06T08:03:26.968Z,1009.67
2016-05-06T08:04:27.017Z,1009.64
2016-05-06T08:05:27.067Z,1009.69
2016-05-06T08:06:27.101Z,1009.63
2016-05-06T08:07:27.151Z,1009.67
2016-05-06T08:08:27.184Z,1009.65
2016-05-06T08:09:27.234Z,1009.62
2016-05-06T08:10:27.269Z,1009.61
2016-05-06T08:11:27.317Z,1009.6
2016-05-06T08:12:27.352Z,1009.61
2016-05-06T08:13:27.401Z,1009.64
2016-05-06T08:14:27.436Z,1009.57
2016-05-06T08:15:27.485Z,1009.58
2016-05-06T08:16:27.535Z,1009.57
2016-05-06T08:17:27.568Z,1009.63
2016-05-06T08:18:27.618Z,1009.59
2016-05-06T08:19:27.668Z,1009.59
2016-05-06T08:20:27.716Z,1009.66
2016-05-06T08:21:27.751Z,1009.6
2016-05-06T08:22:27.801Z,1009.62
2016-05-06T08:23:27.835Z,1009.64
2016-05-06T08:24:27.884Z,1009.61
2016-05-06T08:25:27.934Z,1009.61
2016-05-06T08:26:27.983Z,1009.56
2016-05-06T08:27:28.017Z,1009.62
2016-05-06T08:28:28.067Z,1009.61
2016-05-06T08:29:28.116Z,1009.6
2016-05-06T08:30:28.150Z,1009.57
2016-05-06T08:31:28.200Z,1009.58
2016-05-06T08:32:28.249Z,1009.55
2016-05-06T08:33:28.299Z,1009.55
2016-05-06T08:34:28.333Z,1009.52
2016-05-06T08:35:28.382Z,1009.49
2016-05-06T08:36:28.432Z,1009.49
2016-05-06T08:37:28.481Z,1009.53
2016-05-06T08:38:28.515Z,1009.46
2016-05-06T08:39:28.564Z,1009.47
2016-05-06T08:40:28.615Z,1009.45
2016-05-06T08:41:28.664Z,1009.42
2016-05-06T08:42:28.714Z,1009.5
2016-05-06T08:43:28.747Z,1009.43
2016-05-06T08:44:28.797Z,1009.43
2016-05-06T08:45:28.847Z,1009.46
2016-05-06T08:46:28.896Z,1009.39
2016-05-06T08:47:28.946Z,1009.42
2016-05-06T08:48:28.980Z,1009.41
2016-05-06T08:49:29.029Z,1009.39
2016-05-06T08:50:29.079Z,1009.43
2016-05-06T08:51:29.129Z,1009.42
2016-05-06T08:52:29.162Z,1009.35
2016-05-06T08:53:29.213Z,1009.37
2016-05-06T08:54:29.262Z,1009.33
2016-05-06T08:55:29.311Z,1009.37
2016-05-06T08:56:29.360Z,1009.38
2016-05-06T08:57:29.410Z,1009.4
2016-05-06T08:58:29.444Z,1009.38
2016-05-06T08:59:29.494Z,1009.38
2016-05-06T09:00:29.543Z,1009.34
2016-05-06T09:01:29.593Z,1009.32
2016-05-06T09:02:29.626Z,1009.3
2016-05-06T09:03:29.677Z,1009.3
2016-05-06T09:04:29.726Z,1009.32
2016-05-06T09:05:29.760Z,1009.29
2016-05-06T09:06:29.809Z,1009.29
2016-05-06T09:07:29.875Z,1009.2
2016-05-06T09:08:29.892Z,1009.24
2016-05-06T09:09:29.942Z,1009.2
2016-05-06T09:10:29.992Z,1009.18
2016-05-06T09:11:30.026Z,1009.29
2016-05-06T09:12:30.076Z,1009.26
2016-05-06T09:13:30.125Z,1009.3
2016-05-06T09:14:30.159Z,1009.3
2016-05-06T09:15:30.208Z,1009.37
2016-05-06T09:16:30.242Z,1009.26
2016-05-06T09:17:30.292Z,1009.23
2016-05-06T09:18:30.327Z,1009.18
2016-05-06T09:19:30.375Z,1009.19
2016-05-06T09:20:30.425Z,1009.17
2016-05-06T09:21:30.459Z,1009.15
2016-05-06T09:22:30.509Z,1009.19
2016-05-06T09:23:30.558Z,1009.16
2016-05-06T09:24:30.592Z,1009.23
2016-05-06T09:25:30.642Z,1009.19
2016-05-06T09:26:30.692Z,1009.24
2016-05-06T09:27:30.741Z,1009.22
2016-05-06T09:28:30.775Z,1009.19
2016-05-06T09:29:30.824Z,1009.17
2016-05-06T09:30:30.874Z,1009.13
2016-05-06T09:31:30.907Z,1009.14
2016-05-06T09:32:30.973Z,1009.13
2016-05-06T09:33:31.007Z,1009.14
2016-05-06T09:34:31.057Z,1009.19
2016-05-06T09:35:31.091Z,1009.11
2016-05-06T09:36:31.140Z,1009.16
2016-05-06T09:37:31.190Z,1009.12
2016-05-06T09:38:31.240Z,1009.17
2016-05-06T09:39:31.289Z,1009.17
2016-05-06T09:40:31.323Z,1009.16
2016-05-06T09:41:31.373Z,1009.17
2016-05-06T09:42:31.422Z,1009.14
2016-05-06T09:43:31.472Z,1009.17
2016-05-06T09:44:31.522Z,1009.21
2016-05-06T09:45:31.571Z,1009.15
2016-05-06T09:46:31.620Z,1009.17
2016-05-06T09:47:31.655Z,1009.21
2016-05-06T09:48:31.704Z,1009.17
2016-05-06T09:49:31.753Z,1009.12
2016-05-06T09:50:31.802Z,1009.05
2016-05-06T09:51:31.853Z,1009.09
2016-05-06T09:52:31.902Z,1009.07
2016-05-06T09:53:31.936Z,1009.08
2016-05-06T09:54:32.002Z,1009.09
2016-05-06T09:55:32.035Z,1009.05
2016-05-06T09:56:32.085Z,1009.05
2016-05-06T09:57:32.135Z,1009.01
2016-05-06T09:58:32.184Z,1008.96
2016-05-06T09:59:32.233Z,1008.98
2016-05-06T10:00:32.282Z,1008.96
2016-05-06T10:01:32.333Z,1009
2016-05-06T10:02:32.382Z,1008.92
2016-05-06T10:03:32.431Z,1008.91
2016-05-06T10:04:32.482Z,1008.98
2016-05-06T10:05:32.531Z,1008.97
2016-05-06T10:06:32.580Z,1008.95
2016-05-06T10:07:32.615Z,1008.91
2016-05-06T10:08:32.679Z,1008.86
2016-05-06T10:09:32.714Z,1008.84
2016-05-06T10:10:32.763Z,1008.84
2016-05-06T10:11:32.812Z,1008.78
2016-05-06T10:12:32.862Z,1008.86
2016-05-06T10:13:32.912Z,1008.85
2016-05-06T10:14:32.962Z,1008.85
2016-05-06T10:15:33.026Z,1008.82
2016-05-06T10:16:33.061Z,1008.81
2016-05-06T10:17:33.110Z,1008.81
2016-05-06T10:18:33.159Z,1008.82
2016-05-06T10:19:33.209Z,1008.79
2016-05-06T10:20:33.258Z,1008.8
2016-05-06T10:21:33.309Z,1008.76
2016-05-06T10:22:33.358Z,1008.77
2016-05-06T10:23:33.408Z,1008.72
2016-05-06T10:24:33.457Z,1008.74
2016-05-06T10:25:33.506Z,1008.75
2016-05-06T10:26:33.556Z,1008.78
2016-05-06T10:27:33.605Z,1008.74
2016-05-06T10:28:33.655Z,1008.72
2016-05-06T10:29:33.705Z,1008.7
2016-05-06T10:30:33.770Z,1008.72
2016-05-06T10:31:33.804Z,1008.72
2016-05-06T10:32:33.854Z,1008.72
2016-05-06T10:33:33.904Z,1008.67
2016-05-06T10:34:33.952Z,1008.63
2016-05-06T10:35:34.018Z,1008.71
2016-05-06T10:36:34.051Z,1008.62
2016-05-06T10:37:34.117Z,1008.65
2016-05-06T10:38:34.151Z,1008.63
2016-05-06T10:39:34.200Z,1008.58
2016-05-06T10:40:34.265Z,1008.61
2016-05-06T10:41:34.300Z,1008.59
2016-05-06T10:42:34.365Z,1008.56
2016-05-06T10:43:34.398Z,1008.56
2016-05-06T10:44:34.448Z,1008.5
2016-05-06T10:45:34.514Z,1008.5
2016-05-06T10:46:34.547Z,1008.51
2016-05-06T10:47:34.597Z,1008.51
2016-05-06T10:48:34.647Z,1008.5
2016-05-06T10:49:34.711Z,1008.46
2016-05-06T10:50:34.746Z,1008.45
2016-05-06T10:51:34.795Z,1008.42
2016-05-06T10:52:34.860Z,1008.42
2016-05-06T10:53:34.910Z,1008.37
2016-05-06T10:54:34.944Z,1008.45
2016-05-06T10:55:35.009Z,1008.39
2016-05-06T10:56:35.059Z,1008.42
2016-05-06T10:57:35.108Z,1008.38
2016-05-06T10:58:35.158Z,1008.35
2016-05-06T10:59:35.207Z,1008.36
2016-05-06T11:00:35.258Z,1008.39
2016-05-06T11:01:35.306Z,1008.32
2016-05-06T11:02:35.357Z,1008.34
2016-05-06T11:03:35.405Z,1008.29
2016-05-06T11:04:35.455Z,1008.32
2016-05-06T11:05:35.504Z,1008.29
2016-05-06T11:06:35.554Z,1008.26
2016-05-06T11:07:35.604Z,1008.28
2016-05-06T11:08:35.669Z,1008.19
2016-05-06T11:09:35.718Z,1008.13
2016-05-06T11:10:35.768Z,1008.14
2016-05-06T11:11:37.084Z,1008.23
2016-05-06T11:12:35.868Z,1008.12
2016-05-06T11:13:35.917Z,1008.11
2016-05-06T11:14:35.967Z,1008.11
2016-05-06T11:15:36.032Z,1008.09
2016-05-06T11:16:36.081Z,1008.08
2016-05-06T11:17:36.131Z,1008.11
2016-05-06T11:18:36.181Z,1008.11
2016-05-06T11:19:36.230Z,1008.1
2016-05-06T11:20:36.280Z,1008.03
2016-05-06T11:21:36.329Z,1008.03
2016-05-06T11:22:36.395Z,1008.01
2016-05-06T11:23:36.444Z,1008
2016-05-06T11:24:36.493Z,1008.07
2016-05-06T11:25:36.544Z,1008.01
2016-05-06T11:26:36.780Z,1008
2016-05-06T11:27:36.658Z,1008.06
2016-05-06T11:28:36.708Z,1008.01
2016-05-06T11:29:36.757Z,1007.96
2016-05-06T11:30:36.807Z,1007.93
2016-05-06T11:31:36.856Z,1007.91
2016-05-06T11:32:36.921Z,1007.9
2016-05-06T11:33:36.955Z,1007.92
2016-05-06T11:34:37.021Z,1007.91
2016-05-06T11:35:37.070Z,1007.88
2016-05-06T11:36:37.120Z,1007.93
2016-05-06T11:37:37.169Z,1007.87
2016-05-06T11:38:37.218Z,1007.88
2016-05-06T11:39:37.285Z,1007.86
2016-05-06T11:40:37.334Z,1007.86
2016-05-06T11:41:37.383Z,1007.79
2016-05-06T11:42:37.432Z,1007.84
2016-05-06T11:43:37.498Z,1007.81
2016-05-06T11:44:37.548Z,1007.77
2016-05-06T11:45:37.597Z,1007.72
2016-05-06T11:46:37.646Z,1007.71
2016-05-06T11:47:37.696Z,1007.71
2016-05-06T11:48:37.745Z,1007.71
2016-05-06T11:49:37.811Z,1007.68
2016-05-06T11:50:37.861Z,1007.74
2016-05-06T11:51:37.910Z,1007.71
2016-05-06T11:52:37.959Z,1007.78
2016-05-06T11:53:38.009Z,1007.65
2016-05-06T11:54:38.059Z,1007.72
2016-05-06T11:55:38.124Z,1007.65
2016-05-06T11:56:38.173Z,1007.66
2016-05-06T11:57:38.238Z,1007.64
2016-05-06T11:58:38.273Z,1007.62
2016-05-06T11:59:38.322Z,1007.58
2016-05-06T12:00:38.387Z,1007.48
2016-05-06T12:01:38.437Z,1007.51
2016-05-06T12:02:38.486Z,1007.54
2016-05-06T12:03:38.552Z,1007.51
2016-05-06T12:04:38.601Z,1007.55
2016-05-06T12:05:38.652Z,1007.49
2016-05-06T12:06:38.700Z,1007.47
2016-05-06T12:07:38.765Z,1007.46
2016-05-06T12:08:38.816Z,1007.43
2016-05-06T12:09:38.865Z,1007.46
2016-05-06T12:10:38.915Z,1007.43